Pagina principale
METAR-TAF:

METAR-TAF

Aeroporti :

Kimberley, Sudafrica

latitudine: 28-48S, longitudine: 024-46E, altezza: 1198 m

Osservazione

Il bollettino è stato emesso 21 minuti fa, alle 05:00 UTC
Vento 6 kt da nord
Temperature 7°C
Umidità 66%
Pressione 1028 hPa

METAR: FAKM 160500Z AUTO 01006KT //// // ////// 07/01 Q1028

Ora: 07:21 (05:21 UTC)

Previsione

Il bollettino è stato emesso 2 ore e 21 minuti fa, alle 03:00 UTC
Previsione valida dal 16 alle 04 UTC al 16 alle 15 UTC
Vento 3 kt da direzioni variabili
Visibilità 10 km o più
nessuna nube inferiore a 1500 m e nessun cumulonembo

TAF: FAKM 160300Z 1604/1615 VRB03KT CAVOK TX20/1612Z TN02/1605Z

Osservazioni e previsioni meteorologiche di più di 4000 aeroporti (messaggi METAR e TAF).

Le stazioni disponibili sono rappresentate dai dischi gialli e rossi sulla carta.

Puntare il mouse per vedere il nome della stazione.

Clicca sopra per visualizzare le osservazioni e previsioni meteorologiche.

Per cambiare la mappa : fare clic sui pulsanti verdi con una croce nera per ingrandire, il pulsante verde con un trattino per diminuire, o sulla freccia verde per le mappe adiacenti.


METAR-TAF: